createdAt,value
2022-11-25T00:01:33.832Z,98957.61
2022-11-25T00:04:01.887Z,98956.81
2022-11-25T00:06:32.324Z,98952.38
2022-11-25T00:09:04.919Z,98954.30
2022-11-25T00:11:36.348Z,98954.84
2022-11-25T00:14:04.428Z,98950.88
2022-11-25T00:16:32.111Z,98950.36
2022-11-25T00:18:59.894Z,98948.59
2022-11-25T00:21:29.937Z,98952.30
2022-11-25T00:23:59.723Z,98953.58
2022-11-25T00:26:28.674Z,98952.60
2022-11-25T00:28:58.788Z,98955.31
2022-11-25T00:31:34.748Z,98956.66
2022-11-25T00:34:02.944Z,98954.96
2022-11-25T00:36:36.349Z,98958.70
2022-11-25T00:39:12.787Z,98959.23
2022-11-25T00:41:59.624Z,98965.11
2022-11-25T00:44:37.180Z,98967.34
2022-11-25T00:47:14.595Z,98971.58
2022-11-25T00:49:45.436Z,98972.54
2022-11-25T00:52:15.777Z,98973.54
2022-11-25T00:54:44.904Z,98969.08
2022-11-25T00:57:12.610Z,98974.30
2022-11-25T00:59:41.004Z,98972.63
2022-11-25T01:02:10.657Z,98974.66
2022-11-25T01:04:38.844Z,98971.15
2022-11-25T01:07:06.799Z,98972.52
2022-11-25T01:09:35.497Z,98976.23
2022-11-25T01:12:05.346Z,98976.66
2022-11-25T01:14:33.708Z,98984.63
2022-11-25T01:17:01.633Z,98983.86
2022-11-25T01:19:29.319Z,98982.86
2022-11-25T01:21:56.956Z,98981.25
2022-11-25T01:24:26.300Z,98984.06
2022-11-25T01:26:55.889Z,98982.61
2022-11-25T01:29:23.581Z,98982.35
2022-11-25T01:31:55.316Z,98985.84
2022-11-25T01:34:25.604Z,98987.40
2022-11-25T01:36:53.216Z,98991.08
2022-11-25T01:39:27.005Z,98991.84
2022-11-25T01:41:58.066Z,98996.92
2022-11-25T01:44:31.093Z,98998.46
2022-11-25T01:47:03.805Z,99000.23
2022-11-25T01:49:42.058Z,99000.73
2022-11-25T01:52:33.222Z,99000.53
2022-11-25T01:55:11.854Z,98995.59
2022-11-25T01:57:52.406Z,98997.59
2022-11-25T02:00:20.520Z,98994.40
2022-11-25T02:02:49.951Z,98994.73
2022-11-25T02:05:20.979Z,98994.30
2022-11-25T02:07:51.515Z,98994.17
2022-11-25T02:10:23.999Z,98995.35
2022-11-25T02:12:52.145Z,98996.83
2022-11-25T02:15:22.352Z,98995.59
2022-11-25T02:17:50.237Z,99000.59
2022-11-25T02:20:20.031Z,98999.33
2022-11-25T02:22:54.093Z,98997.02
2022-11-25T02:25:26.017Z,98997.09
2022-11-25T02:28:09.499Z,98990.77
2022-11-25T02:30:38.188Z,98995.81
2022-11-25T02:33:06.911Z,98992.21
2022-11-25T02:35:37.107Z,98998.36
2022-11-25T02:38:17.342Z,98996.43
2022-11-25T02:40:51.663Z,99001.96
2022-11-25T02:43:20.340Z,99007.81
2022-11-25T02:45:53.720Z,99008.85
2022-11-25T02:48:34.539Z,99015.90
2022-11-25T02:51:13.139Z,99017.95
2022-11-25T02:53:41.591Z,99023.83
2022-11-25T02:56:10.192Z,99024.67
2022-11-25T02:58:39.211Z,99024.77
2022-11-25T03:01:06.951Z,99023.29
2022-11-25T03:03:35.463Z,99023.77
2022-11-25T03:06:03.617Z,99018.28
2022-11-25T03:08:31.323Z,99023.73
2022-11-25T03:10:59.683Z,99025.13
2022-11-25T03:13:28.566Z,99027.48
2022-11-25T03:15:56.215Z,99032.86
2022-11-25T03:18:24.705Z,99034.27
2022-11-25T03:20:53.332Z,99035.86
2022-11-25T03:23:21.391Z,99038.88
2022-11-25T03:25:49.606Z,99039.95
2022-11-25T03:28:17.450Z,99037.54
2022-11-25T03:30:45.732Z,99040.23
2022-11-25T03:33:13.711Z,99035.71
2022-11-25T03:35:41.423Z,99034.91
2022-11-25T03:38:09.147Z,99038.40
2022-11-25T03:40:38.067Z,99045.14
2022-11-25T03:43:05.832Z,99043.00
2022-11-25T03:45:34.402Z,99040.23
2022-11-25T03:48:03.716Z,99040.41
2022-11-25T03:50:31.541Z,99034.52
2022-11-25T03:52:59.170Z,99037.87
2022-11-25T03:55:27.450Z,99041.48
2022-11-25T03:57:55.788Z,99040.48
2022-11-25T04:00:25.472Z,99038.04
2022-11-25T04:02:58.263Z,99035.48
2022-11-25T04:05:26.127Z,99034.73
2022-11-25T04:07:57.883Z,99034.38
2022-11-25T04:10:26.189Z,99037.31
2022-11-25T04:12:54.252Z,99036.39
2022-11-25T04:15:30.064Z,99040.02
2022-11-25T04:17:58.711Z,99039.33
2022-11-25T04:20:26.416Z,99042.12
2022-11-25T04:23:01.063Z,99040.18
2022-11-25T04:25:29.055Z,99037.33
2022-11-25T04:27:56.797Z,99038.26
2022-11-25T04:30:29.225Z,99038.20
2022-11-25T04:32:57.323Z,99044.58
2022-11-25T04:35:25.054Z,99044.38
2022-11-25T04:37:54.725Z,99045.04
2022-11-25T04:40:23.282Z,99046.69
2022-11-25T04:43:02.566Z,99049.35
2022-11-25T04:45:58.545Z,99054.91
2022-11-25T04:48:22.014Z,99052.10
2022-11-25T04:50:49.759Z,99051.75
2022-11-25T04:53:17.844Z,99058.04
2022-11-25T04:55:46.323Z,99061.48
2022-11-25T04:58:36.343Z,99062.46
2022-11-25T05:01:04.498Z,99060.85
2022-11-25T05:03:32.465Z,99059.77
2022-11-25T05:06:00.196Z,99063.91
2022-11-25T05:08:27.927Z,99069.18
2022-11-25T05:10:59.297Z,99066.40
2022-11-25T05:13:27.079Z,99068.02
2022-11-25T05:15:54.989Z,99072.06
2022-11-25T05:18:22.825Z,99073.58
2022-11-25T05:20:50.413Z,99071.88
2022-11-25T05:23:19.616Z,99071.78
2022-11-25T05:25:47.536Z,99073.17
2022-11-25T05:28:27.512Z,99072.93
2022-11-25T05:30:55.602Z,99076.19
2022-11-25T05:33:24.178Z,99081.55
2022-11-25T05:35:56.715Z,99078.70
2022-11-25T05:38:25.433Z,99078.96
2022-11-25T05:40:54.670Z,99090.70
2022-11-25T05:43:22.622Z,99090.81
2022-11-25T05:45:50.320Z,99091.27
2022-11-25T05:48:18.896Z,99093.60
2022-11-25T05:50:47.649Z,99090.45
2022-11-25T05:53:20.589Z,99088.91
2022-11-25T05:55:56.128Z,99093.02
2022-11-25T05:58:33.863Z,99093.81
2022-11-25T06:01:06.902Z,99096.94
2022-11-25T06:03:35.158Z,99103.50
2022-11-25T06:06:03.068Z,99105.89
2022-11-25T06:08:30.837Z,99105.04
2022-11-25T06:10:58.884Z,99109.22
2022-11-25T06:13:27.160Z,99108.55
2022-11-25T06:15:54.773Z,99114.70
2022-11-25T06:18:22.529Z,99120.62
2022-11-25T06:20:57.850Z,99122.13
2022-11-25T06:23:26.641Z,99123.55
2022-11-25T06:26:03.895Z,99124.45
2022-11-25T06:28:32.171Z,99128.06
2022-11-25T06:31:14.781Z,99129.29
2022-11-25T06:33:53.205Z,99130.19
2022-11-25T06:36:22.325Z,99136.16
2022-11-25T06:38:52.525Z,99134.66
2022-11-25T06:41:21.573Z,99137.45
2022-11-25T06:43:49.360Z,99142.63
2022-11-25T06:46:24.401Z,99142.69
2022-11-25T06:48:53.423Z,99143.29
2022-11-25T06:51:21.134Z,99142.64
2022-11-25T06:53:48.799Z,99144.09
2022-11-25T06:56:19.198Z,99146.77
2022-11-25T06:58:47.848Z,99146.81
2022-11-25T07:01:27.245Z,99147.23
2022-11-25T07:03:58.644Z,99147.25
2022-11-25T07:06:26.829Z,99146.98
2022-11-25T07:08:54.565Z,99148.58
2022-11-25T07:11:24.274Z,99148.77
2022-11-25T07:13:54.157Z,99149.95
2022-11-25T07:16:22.098Z,99151.18
2022-11-25T07:18:50.208Z,99145.69
2022-11-25T07:21:20.196Z,99149.25
2022-11-25T07:23:48.357Z,99149.83
2022-11-25T07:26:21.809Z,99152.79
2022-11-25T07:28:50.837Z,99151.76
2022-11-25T07:31:24.323Z,99155.43
2022-11-25T07:33:53.902Z,99154.16
2022-11-25T07:36:22.178Z,99155.33
2022-11-25T07:38:50.066Z,99157.60
2022-11-25T07:41:22.980Z,99159.45
2022-11-25T07:43:54.031Z,99159.11
2022-11-25T07:46:38.080Z,99158.92
2022-11-25T07:49:08.831Z,99157.51
2022-11-25T07:51:51.276Z,99160.28
2022-11-25T07:54:19.290Z,99154.03
2022-11-25T07:56:48.470Z,99154.68
2022-11-25T07:59:18.960Z,99153.98
2022-11-25T08:01:48.495Z,99158.23
2022-11-25T08:04:20.048Z,99156.77
2022-11-25T08:06:50.738Z,99160.98
2022-11-25T08:09:22.353Z,99162.64
2022-11-25T08:11:50.415Z,99162.70
2022-11-25T08:14:18.193Z,99168.80
2022-11-25T08:16:45.975Z,99170.59
2022-11-25T08:19:15.454Z,99169.04
2022-11-25T08:21:43.405Z,99172.03
2022-11-25T08:24:19.546Z,99175.61
2022-11-25T08:26:47.931Z,99176.77
2022-11-25T08:29:17.357Z,99179.64
2022-11-25T08:31:45.176Z,99177.70
2022-11-25T08:34:19.247Z,99182.25
2022-11-25T08:36:48.780Z,99182.21
2022-11-25T08:39:44.152Z,99178.86
2022-11-25T08:42:06.277Z,99185.61
2022-11-25T08:44:35.061Z,99186.85
2022-11-25T08:47:02.785Z,99184.55
2022-11-25T08:49:32.718Z,99184.98
2022-11-25T08:52:03.947Z,99183.15
2022-11-25T08:54:31.578Z,99187.14
2022-11-25T08:57:00.687Z,99191.13
2022-11-25T08:59:28.376Z,99191.02
2022-11-25T09:01:56.060Z,99192.84
2022-11-25T09:04:23.846Z,99193.20
2022-11-25T09:06:51.468Z,99194.86
2022-11-25T09:09:19.179Z,99195.17
2022-11-25T09:11:46.885Z,99195.52
2022-11-25T09:14:14.918Z,99195.77
2022-11-25T09:16:42.767Z,99197.36
2022-11-25T09:19:10.458Z,99198.41
2022-11-25T09:21:38.079Z,99200.06
2022-11-25T09:24:05.953Z,99198.55
2022-11-25T09:26:35.812Z,99198.02
2022-11-25T09:29:03.649Z,99202.02
2022-11-25T09:31:31.348Z,99202.29
2022-11-25T09:33:59.220Z,99202.24
2022-11-25T09:36:26.944Z,99200.67
2022-11-25T09:38:54.825Z,99207.27
2022-11-25T09:41:54.638Z,99205.56
2022-11-25T09:45:00.405Z,99206.58
2022-11-25T09:47:57.237Z,99213.95
2022-11-25T09:50:47.626Z,99211.85
2022-11-25T09:53:37.127Z,99210.52
2022-11-25T09:56:12.462Z,99206.79
2022-11-25T09:58:51.482Z,99210.38
2022-11-25T10:01:22.993Z,99211.73
2022-11-25T10:04:00.893Z,99212.15
2022-11-25T10:06:36.887Z,99216.94
2022-11-25T10:09:13.580Z,99211.95
2022-11-25T10:12:01.327Z,99213.92
2022-11-25T10:14:49.793Z,99219.70
2022-11-25T10:17:42.001Z,99217.75
2022-11-25T10:20:35.764Z,99222.10
2022-11-25T10:23:06.112Z,99219.64
2022-11-25T10:25:39.719Z,99216.75
2022-11-25T10:28:22.308Z,99219.22
2022-11-25T10:31:12.337Z,99219.60
2022-11-25T10:33:54.887Z,99220.42
2022-11-25T10:36:48.808Z,99221.45
2022-11-25T10:39:31.508Z,99221.34
2022-11-25T10:42:26.089Z,99222.05
2022-11-25T10:44:54.962Z,99224.07
2022-11-25T10:47:56.871Z,99218.19
2022-11-25T10:51:03.351Z,99216.49
2022-11-25T10:53:31.070Z,99218.90
2022-11-25T10:56:01.564Z,99223.49
2022-11-25T10:58:30.963Z,99224.05
2022-11-25T11:01:16.997Z,99221.13
2022-11-25T11:03:46.560Z,99220.09
2022-11-25T11:06:37.207Z,99221.11
2022-11-25T11:09:05.165Z,99214.80
2022-11-25T11:11:33.032Z,99213.63
2022-11-25T11:14:21.328Z,99211.60
2022-11-25T11:16:54.107Z,99211.23
2022-11-25T11:19:24.540Z,99211.98
2022-11-25T11:21:52.752Z,99211.08
2022-11-25T11:24:32.272Z,99210.66
2022-11-25T11:27:23.260Z,99216.45
2022-11-25T11:30:15.835Z,99216.85
2022-11-25T11:32:47.860Z,99218.20
2022-11-25T11:35:22.248Z,99213.89
2022-11-25T11:37:53.237Z,99213.89
2022-11-25T11:40:30.095Z,99214.84
2022-11-25T11:43:12.035Z,99213.60
2022-11-25T11:46:04.874Z,99213.38
2022-11-25T11:48:39.536Z,99210.52
2022-11-25T11:51:24.913Z,99217.48
2022-11-25T11:54:15.583Z,99214.14
2022-11-25T11:56:54.985Z,99213.49
2022-11-25T11:59:49.201Z,99212.14
2022-11-25T12:02:36.656Z,99211.73
2022-11-25T12:05:10.541Z,99209.10
2022-11-25T12:08:03.164Z,99209.12
2022-11-25T12:10:38.921Z,99207.52
2022-11-25T12:13:34.260Z,99207.71
2022-11-25T12:16:17.379Z,99211.01
2022-11-25T12:19:03.486Z,99209.33
2022-11-25T12:21:49.286Z,99209.21
2022-11-25T12:24:31.578Z,99213.77
2022-11-25T12:27:20.196Z,99210.60
2022-11-25T12:29:55.894Z,99208.26
2022-11-25T12:32:52.139Z,99211.11
2022-11-25T12:35:55.309Z,99212.69
2022-11-25T12:38:30.289Z,99216.85
2022-11-25T12:41:41.317Z,99215.81
2022-11-25T12:44:20.648Z,99222.64
2022-11-25T12:46:49.883Z,99232.70
2022-11-25T12:49:23.899Z,99234.65
2022-11-25T12:52:12.992Z,99239.61
2022-11-25T12:54:54.599Z,99240.27
2022-11-25T12:57:30.349Z,99243.67
2022-11-25T13:00:39.812Z,99249.55
2022-11-25T13:03:34.373Z,99250.98
2022-11-25T13:06:29.601Z,99251.80
2022-11-25T13:09:21.595Z,99253.17
2022-11-25T13:12:08.485Z,99254.74
2022-11-25T13:14:55.105Z,99253.60
2022-11-25T13:17:23.708Z,99256.28
2022-11-25T13:20:23.647Z,99253.27
2022-11-25T13:23:08.390Z,99253.85
2022-11-25T13:25:41.118Z,99259.85
2022-11-25T13:28:27.924Z,99258.81
2022-11-25T13:30:56.345Z,99261.92
2022-11-25T13:33:23.921Z,99265.98
2022-11-25T13:35:55.527Z,99262.91
2022-11-25T13:38:28.946Z,99258.17
2022-11-25T13:40:59.006Z,99263.51
2022-11-25T13:43:27.188Z,99263.17
2022-11-25T13:45:55.551Z,99262.96
2022-11-25T13:48:25.624Z,99263.00
2022-11-25T13:51:15.954Z,99261.14
2022-11-25T13:53:52.015Z,99259.20
2022-11-25T13:56:33.696Z,99257.64
2022-11-25T13:59:10.705Z,99260.40
2022-11-25T14:01:53.114Z,99262.21
2022-11-25T14:04:59.887Z,99268.73
2022-11-25T14:07:43.021Z,99269.45
2022-11-25T14:10:35.967Z,99268.65
2022-11-25T14:13:19.020Z,99267.70
2022-11-25T14:16:10.125Z,99270.46
2022-11-25T14:19:21.729Z,99272.48
2022-11-25T14:21:52.169Z,99274.23
2022-11-25T14:24:23.085Z,99281.21
2022-11-25T14:26:55.244Z,99286.61
2022-11-25T14:29:37.408Z,99291.24
2022-11-25T14:32:10.842Z,99288.35
2022-11-25T14:34:44.776Z,99287.13
2022-11-25T14:37:39.673Z,99286.36
2022-11-25T14:40:10.187Z,99291.30
2022-11-25T14:42:41.013Z,99292.48
2022-11-25T14:45:25.638Z,99292.77
2022-11-25T14:47:53.395Z,99295.77
2022-11-25T14:50:37.108Z,99296.67
2022-11-25T14:53:07.984Z,99298.92
2022-11-25T14:55:35.814Z,99297.71
2022-11-25T14:58:03.736Z,99299.37
2022-11-25T15:00:31.371Z,99296.57
2022-11-25T15:03:01.197Z,99301.14
2022-11-25T15:05:36.506Z,99300.95
2022-11-25T15:08:11.168Z,99299.00
2022-11-25T15:10:53.084Z,99297.52
2022-11-25T15:13:32.833Z,99300.37
2022-11-25T15:16:08.361Z,99304.58
2022-11-25T15:18:37.043Z,99302.20
2022-11-25T15:21:05.413Z,99300.45
2022-11-25T15:23:37.138Z,99303.94
2022-11-25T15:26:13.398Z,99306.11
2022-11-25T15:28:41.919Z,99306.70
2022-11-25T15:31:15.433Z,99303.95
2022-11-25T15:33:43.837Z,99304.80
2022-11-25T15:36:11.819Z,99308.52
2022-11-25T15:38:43.682Z,99305.67
2022-11-25T15:41:18.680Z,99305.52
2022-11-25T15:43:49.715Z,99303.69
2022-11-25T15:46:18.224Z,99309.16
2022-11-25T15:48:47.423Z,99305.81
2022-11-25T15:51:43.706Z,99308.79
2022-11-25T15:54:20.724Z,99310.14
2022-11-25T15:56:51.177Z,99309.86
2022-11-25T15:59:56.023Z,99308.48
2022-11-25T16:02:43.557Z,99309.05
2022-11-25T16:05:17.213Z,99309.68
2022-11-25T16:07:53.294Z,99313.96
2022-11-25T16:10:22.173Z,99314.31
2022-11-25T16:13:29.101Z,99315.66
2022-11-25T16:16:03.563Z,99317.96
2022-11-25T16:18:41.880Z,99318.16
2022-11-25T16:21:21.812Z,99321.23
2022-11-25T16:23:58.314Z,99322.70
2022-11-25T16:26:49.072Z,99321.05
2022-11-25T16:29:39.173Z,99317.89
2022-11-25T16:32:15.697Z,99318.23
2022-11-25T16:34:43.614Z,99319.84
2022-11-25T16:37:11.534Z,99317.70
2022-11-25T16:39:39.593Z,99316.16
2022-11-25T16:42:17.016Z,99316.08
2022-11-25T16:44:48.200Z,99311.88
2022-11-25T16:47:17.708Z,99315.15
2022-11-25T16:49:46.522Z,99317.33
2022-11-25T16:52:14.783Z,99317.04
2022-11-25T16:54:42.539Z,99322.70
2022-11-25T16:57:17.763Z,99325.41
2022-11-25T16:59:46.271Z,99326.54
2022-11-25T17:02:18.742Z,99327.43
2022-11-25T17:04:47.509Z,99329.92
2022-11-25T17:07:32.908Z,99333.13
2022-11-25T17:10:01.113Z,99333.16
2022-11-25T17:12:32.541Z,99333.78
2022-11-25T17:15:00.931Z,99332.05
2022-11-25T17:17:28.936Z,99336.41
2022-11-25T17:19:56.731Z,99338.25
2022-11-25T17:22:25.835Z,99339.14
2022-11-25T17:24:53.949Z,99341.17
2022-11-25T17:27:27.375Z,99342.59
2022-11-25T17:29:56.966Z,99346.92
2022-11-25T17:32:25.793Z,99348.74
2022-11-25T17:34:53.894Z,99349.45
2022-11-25T17:37:23.748Z,99346.17
2022-11-25T17:39:53.519Z,99350.86
2022-11-25T17:42:32.257Z,99349.08
2022-11-25T17:45:00.408Z,99350.45
2022-11-25T17:47:28.334Z,99352.78
2022-11-25T17:49:57.741Z,99348.70
2022-11-25T17:52:25.463Z,99352.89
2022-11-25T17:54:53.179Z,99352.00
2022-11-25T17:57:21.482Z,99351.10
2022-11-25T17:59:49.584Z,99353.45
2022-11-25T18:02:19.005Z,99350.11
2022-11-25T18:04:47.205Z,99354.96
2022-11-25T18:07:14.935Z,99354.84
2022-11-25T18:09:42.869Z,99353.53
2022-11-25T18:12:16.960Z,99360.34
2022-11-25T18:14:44.929Z,99363.27
2022-11-25T18:17:17.925Z,99369.55
2022-11-25T18:19:49.975Z,99369.97
2022-11-25T18:22:21.647Z,99365.40
2022-11-25T18:24:49.361Z,99370.27
2022-11-25T18:27:31.923Z,99370.24
2022-11-25T18:30:02.456Z,99371.44
2022-11-25T18:32:30.349Z,99370.36
2022-11-25T18:34:57.991Z,99372.45
2022-11-25T18:37:25.632Z,99377.41
2022-11-25T18:39:53.216Z,99379.06
2022-11-25T18:42:24.729Z,99382.65
2022-11-25T18:44:53.743Z,99382.45
2022-11-25T18:47:21.500Z,99386.20
2022-11-25T18:49:55.076Z,99379.70
2022-11-25T18:52:24.901Z,99377.81
2022-11-25T18:54:52.628Z,99384.44
2022-11-25T18:57:20.252Z,99389.92
2022-11-25T19:00:00.273Z,99389.10
2022-11-25T19:02:36.026Z,99392.39
2022-11-25T19:05:33.460Z,99391.35
2022-11-25T19:08:01.232Z,99394.77
2022-11-25T19:10:31.372Z,99396.00
2022-11-25T19:13:01.702Z,99396.21
2022-11-25T19:15:29.353Z,99398.98
2022-11-25T19:18:01.536Z,99396.59
2022-11-25T19:20:30.266Z,99394.86
2022-11-25T19:23:01.126Z,99396.84
2022-11-25T19:25:29.641Z,99398.65
2022-11-25T19:27:58.961Z,99397.27
2022-11-25T19:30:28.765Z,99396.30
2022-11-25T19:32:58.688Z,99397.09
2022-11-25T19:35:31.573Z,99401.77
2022-11-25T19:37:59.230Z,99403.29
2022-11-25T19:40:31.461Z,99405.36
2022-11-25T19:43:02.500Z,99404.73
2022-11-25T19:45:30.993Z,99407.41
2022-11-25T19:47:59.388Z,99411.13
2022-11-25T19:50:28.513Z,99413.77
2022-11-25T19:52:56.172Z,99412.65
2022-11-25T19:55:26.468Z,99416.35
2022-11-25T19:57:54.536Z,99416.88
2022-11-25T20:00:23.554Z,99415.29
2022-11-25T20:02:53.456Z,99414.71
2022-11-25T20:05:30.148Z,99419.92
2022-11-25T20:07:57.869Z,99420.62
2022-11-25T20:10:27.867Z,99422.38
2022-11-25T20:12:56.916Z,99429.07
2022-11-25T20:15:25.699Z,99427.85
2022-11-25T20:17:56.372Z,99428.27
2022-11-25T20:20:32.705Z,99424.33
2022-11-25T20:23:04.902Z,99427.40
2022-11-25T20:25:36.172Z,99432.29
2022-11-25T20:28:03.835Z,99435.03
2022-11-25T20:30:31.444Z,99436.96
2022-11-25T20:32:59.035Z,99445.84
2022-11-25T20:35:26.656Z,99446.46
2022-11-25T20:37:57.544Z,99450.44
2022-11-25T20:40:32.972Z,99453.13
2022-11-25T20:43:01.040Z,99451.87
2022-11-25T20:45:28.805Z,99452.52
2022-11-25T20:47:56.711Z,99460.60
2022-11-25T20:50:24.407Z,99457.55
2022-11-25T20:52:52.080Z,99458.30
2022-11-25T20:55:24.788Z,99454.39
2022-11-25T20:57:52.934Z,99458.33
2022-11-25T21:00:26.506Z,99456.83
2022-11-25T21:02:55.566Z,99462.63
2022-11-25T21:05:23.503Z,99464.68
2022-11-25T21:07:51.193Z,99465.05
2022-11-25T21:10:28.217Z,99465.57
2022-11-25T21:12:56.684Z,99469.00
2022-11-25T21:15:27.406Z,99470.52
2022-11-25T21:17:55.276Z,99475.34
2022-11-25T21:20:22.963Z,99478.97
2022-11-25T21:22:54.564Z,99477.33
2022-11-25T21:25:22.596Z,99480.96
2022-11-25T21:27:52.081Z,99479.94
2022-11-25T21:30:22.300Z,99480.48
2022-11-25T21:32:54.935Z,99482.30
2022-11-25T21:35:26.202Z,99481.23
2022-11-25T21:37:53.853Z,99483.54
2022-11-25T21:40:31.401Z,99489.83
2022-11-25T21:42:59.676Z,99489.59
2022-11-25T21:45:27.308Z,99489.46
2022-11-25T21:47:54.900Z,99485.44
2022-11-25T21:50:22.565Z,99489.73
2022-11-25T21:52:50.241Z,99488.80
2022-11-25T21:55:17.895Z,99493.60
2022-11-25T21:57:45.609Z,99493.54
2022-11-25T22:00:19.986Z,99497.38
2022-11-25T22:02:48.123Z,99498.63
2022-11-25T22:05:17.662Z,99498.41
2022-11-25T22:07:45.746Z,99505.54
2022-11-25T22:10:15.831Z,99503.72
2022-11-25T22:12:46.145Z,99504.13
2022-11-25T22:15:19.254Z,99512.34
2022-11-25T22:17:47.429Z,99514.62
2022-11-25T22:20:24.160Z,99518.85
2022-11-25T22:22:51.902Z,99519.67
2022-11-25T22:25:19.627Z,99528.05
2022-11-25T22:27:47.765Z,99530.26
2022-11-25T22:30:17.727Z,99529.86
2022-11-25T22:32:46.983Z,99526.79
2022-11-25T22:35:19.723Z,99528.17
2022-11-25T22:37:53.570Z,99528.71
2022-11-25T22:40:23.808Z,99523.79
2022-11-25T22:42:52.269Z,99525.70
2022-11-25T22:45:33.755Z,99525.32
2022-11-25T22:48:04.805Z,99521.61
2022-11-25T22:50:33.548Z,99523.59
2022-11-25T22:53:01.854Z,99522.17
2022-11-25T22:55:32.095Z,99524.55
2022-11-25T22:58:01.698Z,99523.77
2022-11-25T23:00:38.448Z,99526.11
2022-11-25T23:03:07.853Z,99526.33
2022-11-25T23:05:36.935Z,99524.56
2022-11-25T23:08:17.751Z,99531.27
2022-11-25T23:10:46.596Z,99535.77
2022-11-25T23:13:15.780Z,99535.09
2022-11-25T23:15:48.013Z,99536.23
2022-11-25T23:18:20.387Z,99539.88
2022-11-25T23:20:49.367Z,99540.23
2022-11-25T23:23:19.755Z,99543.54
2022-11-25T23:25:47.967Z,99541.95
2022-11-25T23:28:16.359Z,99547.18
2022-11-25T23:30:58.309Z,99552.73
2022-11-25T23:33:40.613Z,99557.16
2022-11-25T23:36:30.124Z,99560.10
2022-11-25T23:39:03.524Z,99558.29
2022-11-25T23:41:33.783Z,99556.90
2022-11-25T23:44:09.447Z,99560.50
2022-11-25T23:46:37.428Z,99555.77
2022-11-25T23:49:07.249Z,99557.95
2022-11-25T23:51:34.912Z,99559.73
2022-11-25T23:54:02.644Z,99563.87
2022-11-25T23:56:30.409Z,99566.58
2022-11-25T23:58:58.031Z,99572.33
